Time;durP1;ratioP1;P1;durP2;ratioP2;P2;SDS_P1;SDS_P2;PMS_P1;PMS_P2;Temp;Humidity;BMP_temperature;BMP_pressure;BME280_temperature;BME280_humidity;BME280_pressure;Samples;Min_cycle;Max_cycle;Signal;HPM_P1;HPM_P2
2021/10/29 00:00:00;;;;;;;;;;;;;;;;;;5137187;27;19930;-66
2021/10/29 00:02:27;;;;;;;;;;;;;;;;;;5136877;27;20022;-66
2021/10/29 00:04:54;;;;;;;;;;;;;;;;;;5137325;27;19923;-66
2021/10/29 00:07:20;;;;;;;;;;;;;;;;;;5137222;27;19923;-66
2021/10/29 00:09:47;;;;;;;;;;;;;;;;;;5136712;27;19927;-66
2021/10/29 00:12:13;;;;;;;;;;;;;;;;;;5137183;27;19923;-66
2021/10/29 00:14:40;;;;;;;;;;;;;;;;;;5136931;27;19973;-66
2021/10/29 00:17:06;;;;;;;;;;;;;;;;;;5137089;27;20115;-66
2021/10/29 00:19:32;;;;;;;;;;;;;;;;;;5136808;27;19930;-66
2021/10/29 00:21:59;;;;;;;;;;;;;;;;;;5136638;27;19923;-66
2021/10/29 00:24:25;;;;;;;;;;;;;;;;;;5136623;27;19923;-66
2021/10/29 00:26:51;;;;;;;;;;;;;;;;;;5136999;27;19923;-66
2021/10/29 00:29:19;;;;;;;;;;;;;;;;;;5136570;27;20403;-66
2021/10/29 00:31:45;;;;;;;;;;;;;;;;;;5136700;27;19923;-66
2021/10/29 00:34:11;;;;;;;;;;;;;;;;;;5136445;27;20396;-66
2021/10/29 00:36:37;;;;;;;;;;;;;;;;;;5136542;27;19923;-66
2021/10/29 00:39:04;;;;;;;;;;;;;;;;;;5136648;27;19930;-66
2021/10/29 00:41:31;;;;;;;;;;;;;;;;;;5136140;27;20381;-66
2021/10/29 00:43:58;;;;;;;;;;;;;;;;;;5136249;27;20373;-66
2021/10/29 00:46:24;;;;;;;;;;;;;;;;;;5135845;27;19923;-66
2021/10/29 00:48:51;;;;;;;;;;;;;;;;;;5135565;27;20298;-66
2021/10/29 00:51:19;;;;;;;;;;;;;;;;;;5136547;27;19934;-66
2021/10/29 00:53:45;;;;;;;;;;;;;;;;;;5135963;27;20460;-66
2021/10/29 00:56:11;;;;;;;;;;;;;;;;;;5136137;27;19931;-66
2021/10/29 00:58:38;;;;;;;;;;;;;;;;;;5136151;27;19981;-66
2021/10/29 01:01:04;;;;;;;;;;;;;;;;;;5136207;27;19930;-66
2021/10/29 01:03:30;;;;;;;;;;;;;;;;;;5135981;27;19924;-66
2021/10/29 01:05:57;;;;;;;;;;;;;;;;;;5136253;27;19969;-66
2021/10/29 01:08:23;;;;;;;;;;;;;;;;;;5135585;27;20407;-66
2021/10/29 01:10:50;;;;;;;;;;;;;;;;;;5135659;27;19930;-66
2021/10/29 01:13:16;;;;;;;;;;;;;;;;;;5135817;27;19930;-66
2021/10/29 01:15:43;;;;;;;;;;;;;;;;;;5135516;27;19967;-66
2021/10/29 01:18:09;;;;;;;;;;;;;;;;;;5135973;27;19923;-66
2021/10/29 01:20:35;;;;;;;;;;;;;;;;;;5135043;27;20385;-66
2021/10/29 01:23:02;;;;;;;;;;;;;;;;;;5135584;27;19923;-66
2021/10/29 01:25:28;;;;;;;;;;;;;;;;;;5135508;27;19930;-66
2021/10/29 01:27:54;;;;;;;;;;;;;;;;;;5135531;27;20300;-66
2021/10/29 01:30:20;;;;;;;;;;;;;;;;;;5135483;27;19923;-66
2021/10/29 01:32:47;;;;;;;;;;;;;;;;;;5135411;27;19934;-66
2021/10/29 01:35:13;;;;;;;;;;;;;;;;;;5135295;27;20431;-66
2021/10/29 01:37:39;;;;;;;;;;;;;;;;;;5135092;27;19929;-66
2021/10/29 01:40:06;;;;;;;;;;;;;;;;;;5135472;27;19929;-67
2021/10/29 01:42:32;;;;;;;;;;;;;;;;;;5135006;27;20402;-67
2021/10/29 01:44:58;;;;;;;;;;;;;;;;;;5135389;27;19923;-66
2021/10/29 01:47:25;;;;;;;;;;;;;;;;;;5134824;27;20292;-66
2021/10/29 01:49:51;;;;;;;;;;;;;;;;;;5135044;27;19923;-66
2021/10/29 01:52:17;;;;;;;;;;;;;;;;;;5135218;27;19927;-66
2021/10/29 01:54:43;;;;;;;;;;;;;;;;;;5135014;27;19929;-66
2021/10/29 01:57:10;;;;;;;;;;;;;;;;;;5134925;27;19930;-67
2021/10/29 01:59:36;;;;;;;;;;;;;;;;;;5134783;27;19923;-67
2021/10/29 02:02:02;;;;;;;;;;;;;;;;;;5133766;27;20289;-66
2021/10/29 02:04:29;;;;;;;;;;;;;;;;;;5134468;27;19931;-66
2021/10/29 02:06:55;;;;;;;;;;;;;;;;;;5135053;27;19924;-66
2021/10/29 02:09:21;;;;;;;;;;;;;;;;;;5134513;27;19924;-66
2021/10/29 02:11:48;;;;;;;;;;;;;;;;;;5134932;27;19928;-66
2021/10/29 02:14:14;;;;;;;;;;;;;;;;;;5134831;27;20263;-66
2021/10/29 02:16:41;;;;;;;;;;;;;;;;;;5134307;27;19930;-66
2021/10/29 02:19:07;;;;;;;;;;;;;;;;;;5134518;27;19934;-67
2021/10/29 02:21:34;;;;;;;;;;;;;;;;;;5134153;27;19929;-66
2021/10/29 02:24:00;;;;;;;;;;;;;;;;;;5134247;27;20386;-67
2021/10/29 02:26:28;;;;;;;;;;;;;;;;;;5134089;27;19924;-67
2021/10/29 02:28:54;;;;;;;;;;;;;;;;;;5134220;27;20374;-67
2021/10/29 02:31:20;;;;;;;;;;;;;;;;;;5134696;27;19923;-67
2021/10/29 02:33:47;;;;;;;;;;;;;;;;;;5133943;27;19975;-66
2021/10/29 02:36:13;;;;;;;;;;;;;;;;;;5134500;27;19924;-66
2021/10/29 02:38:39;;;;;;;;;;;;;;;;;;5133777;27;19924;-66
2021/10/29 02:41:06;;;;;;;;;;;;;;;;;;5134286;27;20051;-66
2021/10/29 02:43:32;;;;;;;;;;;;;;;;;;5133776;27;20400;-66
2021/10/29 02:45:58;;;;;;;;;;;;;;;;;;5134243;27;19928;-66
2021/10/29 02:48:24;;;;;;;;;;;;;;;;;;5133942;27;19923;-66
2021/10/29 02:50:51;;;;;;;;;;;;;;;;;;5133818;27;19923;-66
2021/10/29 02:53:17;;;;;;;;;;;;;;;;;;5134137;27;19924;-66
2021/10/29 02:55:44;;;;;;;;;;;;;;;;;;5133475;27;20289;-67
2021/10/29 02:58:10;;;;;;;;;;;;;;;;;;5133749;27;19976;-66
2021/10/29 03:00:37;;;;;;;;;;;;;;;;;;5133825;27;19930;-67
2021/10/29 03:03:03;;;;;;;;;;;;;;;;;;5133648;27;20498;-66
2021/10/29 03:05:29;;;;;;;;;;;;;;;;;;5133339;27;19930;-66
2021/10/29 03:07:56;;;;;;;;;;;;;;;;;;5133938;27;19924;-66
2021/10/29 03:10:22;;;;;;;;;;;;;;;;;;5133472;27;19931;-67
2021/10/29 03:12:48;;;;;;;;;;;;;;;;;;5133267;27;20374;-67
2021/10/29 03:15:15;;;;;;;;;;;;;;;;;;5133498;27;19923;-67
2021/10/29 03:17:41;;;;;;;;;;;;;;;;;;5133593;27;19923;-67
2021/10/29 03:20:07;;;;;;;;;;;;;;;;;;5133374;27;19930;-66
2021/10/29 03:22:36;;;;;;;;;;;;;;;;;;5132523;27;20207;-66
2021/10/29 03:25:02;;;;;;;;;;;;;;;;;;5133599;27;19930;-67
2021/10/29 03:27:28;;;;;;;;;;;;;;;;;;5133195;28;20419;-66
2021/10/29 03:29:54;;;;;;;;;;;;;;;;;;5133410;28;19924;-66
2021/10/29 03:32:21;;;;;;;;;;;;;;;;;;5133671;28;19923;-67
2021/10/29 03:34:47;;;;;;;;;;;;;;;;;;5133467;28;19924;-66
2021/10/29 03:37:23;;;;;;;;;;;;;;;;;;5133541;28;20022;-66
2021/10/29 03:39:54;;;;;;;;;;;;;;;;;;5133333;28;20042;-67
2021/10/29 03:42:25;;;;;;;;;;;;;;;;;;5133237;28;19969;-67
2021/10/29 03:44:56;;;;;;;;;;;;;;;;;;5133229;28;20029;-67
2021/10/29 03:47:22;;;;;;;;;;;;;;;;;;5133272;28;19924;-67
2021/10/29 03:49:50;;;;;;;;;;;;;;;;;;5133458;28;19934;-67
2021/10/29 03:52:23;;;;;;;;;;;;;;;;;;5133222;28;19949;-67
2021/10/29 03:54:53;;;;;;;;;;;;;;;;;;5133428;28;20300;-67
2021/10/29 03:57:24;;;;;;;;;;;;;;;;;;5133750;28;19950;-67
2021/10/29 03:59:51;;;;;;;;;;;;;;;;;;5133060;28;19969;-67
2021/10/29 04:02:18;;;;;;;;;;;;;;;;;;5133401;28;19968;-67
2021/10/29 04:04:44;;;;;;;;;;;;;;;;;;5133048;28;19927;-67
2021/10/29 04:07:11;;;;;;;;;;;;;;;;;;5132867;28;20404;-67
2021/10/29 04:09:37;;;;;;;;;;;;;;;;;;5133014;28;19924;-66
2021/10/29 04:12:03;;;;;;;;;;;;;;;;;;5133020;28;19972;-67
2021/10/29 04:14:30;;;;;;;;;;;;;;;;;;5132731;28;19933;-66
2021/10/29 04:16:56;;;;;;;;;;;;;;;;;;5132915;28;20384;-66
2021/10/29 04:19:23;;;;;;;;;;;;;;;;;;5132839;28;19969;-67
2021/10/29 04:21:49;;;;;;;;;;;;;;;;;;5132701;28;19927;-67
2021/10/29 04:24:15;;;;;;;;;;;;;;;;;;5134472;27;19923;-67
2021/10/29 04:26:42;;;;;;;;;;;;;;;;;;5136707;27;19964;-67
2021/10/29 04:29:13;;;;;;;;;;;;;;;;;;5136610;27;19930;-67
2021/10/29 04:31:47;;;;;;;;;;;;;;;;;;5136381;27;19934;-67
2021/10/29 04:34:13;;;;;;;;;;;;;;;;;;5136951;27;19971;-67
2021/10/29 04:36:40;;;;;;;;;;;;;;;;;;5136238;27;19927;-67
2021/10/29 04:39:10;;;;;;;;;;;;;;;;;;5136717;27;19923;-67
2021/10/29 04:41:36;;;;;;;;;;;;;;;;;;5136763;27;19923;-67
2021/10/29 04:44:02;;;;;;;;;;;;;;;;;;5136313;27;19938;-67
2021/10/29 04:46:30;;;;;;;;;;;;;;;;;;5136047;27;20297;-67
2021/10/29 04:48:57;;;;;;;;;;;;;;;;;;5136485;27;19923;-67
2021/10/29 04:51:23;;;;;;;;;;;;;;;;;;5136148;27;19931;-67
2021/10/29 04:53:49;;;;;;;;;;;;;;;;;;5136074;27;19972;-67
2021/10/29 04:56:16;;;;;;;;;;;;;;;;;;5136492;27;19931;-67
2021/10/29 04:58:42;;;;;;;;;;;;;;;;;;5135705;27;20392;-67
2021/10/29 05:01:08;;;;;;;;;;;;;;;;;;5136059;27;19923;-67
2021/10/29 05:03:35;;;;;;;;;;;;;;;;;;5136046;27;19923;-67
2021/10/29 05:06:01;;;;;;;;;;;;;;;;;;5136099;27;19924;-67
2021/10/29 05:08:27;;;;;;;;;;;;;;;;;;5135521;27;20400;-67
2021/10/29 05:10:54;;;;;;;;;;;;;;;;;;5135920;27;19931;-67
2021/10/29 05:13:20;;;;;;;;;;;;;;;;;;5136136;27;19927;-67
2021/10/29 05:15:46;;;;;;;;;;;;;;;;;;5135487;27;19923;-67
2021/10/29 05:18:15;;;;;;;;;;;;;;;;;;5135959;27;19923;-67
2021/10/29 05:20:41;;;;;;;;;;;;;;;;;;5135290;27;19976;-68
2021/10/29 05:23:08;;;;;;;;;;;;;;;;;;5135936;27;19923;-67
2021/10/29 05:25:34;;;;;;;;;;;;;;;;;;5135376;27;20285;-67
2021/10/29 05:28:00;;;;;;;;;;;;;;;;;;5135530;27;19933;-69
2021/10/29 05:30:27;;;;;;;;;;;;;;;;;;5135253;27;19965;-68
2021/10/29 05:32:53;;;;;;;;;;;;;;;;;;5135454;27;20278;-68
2021/10/29 05:35:20;;;;;;;;;;;;;;;;;;5135501;27;19923;-68
2021/10/29 05:37:46;;;;;;;;;;;;;;;;;;5134991;27;19931;-68
2021/10/29 05:40:12;;;;;;;;;;;;;;;;;;5135531;27;19923;-68
2021/10/29 05:42:38;;;;;;;;;;;;;;;;;;5134963;27;20297;-67
2021/10/29 05:45:05;;;;;;;;;;;;;;;;;;5135119;27;19929;-68
2021/10/29 05:47:31;;;;;;;;;;;;;;;;;;5135027;27;19996;-68
2021/10/29 05:49:58;;;;;;;;;;;;;;;;;;5135441;27;19923;-68
2021/10/29 05:52:26;;;;;;;;;;;;;;;;;;5134791;27;20368;-68
2021/10/29 05:55:13;;;;;;;;;;;;;;;;;;5135123;27;19924;-68
2021/10/29 05:57:39;;;;;;;;;;;;;;;;;;5135099;27;19930;-68
2021/10/29 06:00:05;;;;;;;;;;;;;;;;;;5135118;27;20018;-68
2021/10/29 06:02:32;;;;;;;;;;;;;;;;;;5134826;27;19923;-68
2021/10/29 06:04:58;;;;;;;;;;;;;;;;;;5134687;27;19931;-68
2021/10/29 06:07:24;;;;;;;;;;;;;;;;;;5134507;27;20018;-68
2021/10/29 06:09:50;;;;;;;;;;;;;;;;;;5134752;27;19934;-68
2021/10/29 06:12:17;;;;;;;;;;;;;;;;;;5134607;27;20397;-68
2021/10/29 06:14:43;;;;;;;;;;;;;;;;;;5134307;27;19927;-68
2021/10/29 06:17:13;;;;;;;;;;;;;;;;;;5134796;27;19924;-67
2021/10/29 06:19:40;;;;;;;;;;;;;;;;;;5134087;27;20305;-68
2021/10/29 06:22:10;;;;;;;;;;;;;;;;;;5134212;27;19930;-67
2021/10/29 06:24:37;;;;;;;;;;;;;;;;;;5134207;27;20018;-68
2021/10/29 06:27:08;;;;;;;;;;;;;;;;;;5134585;27;20018;-67
2021/10/29 06:29:35;;;;;;;;;;;;;;;;;;5134318;27;19923;-67
2021/10/29 06:32:01;;;;;;;;;;;;;;;;;;5134243;27;19930;-68
2021/10/29 06:34:28;;;;;;;;;;;;;;;;;;5133823;27;19923;-68
2021/10/29 06:36:54;;;;;;;;;;;;;;;;;;5134623;27;19930;-68
2021/10/29 06:39:21;;;;;;;;;;;;;;;;;;5134181;27;19927;-67
2021/10/29 06:41:47;;;;;;;;;;;;;;;;;;5134057;27;19930;-67
2021/10/29 06:44:25;;;;;;;;;;;;;;;;;;5134240;27;20018;-67
2021/10/29 06:52:34;;;;;;;;;;;;;;;;;;5132447;27;19920;-67
2021/10/29 07:00:36;;;;;;;;;;;;;;;;;;5133660;27;19919;-67
2021/10/29 07:11:45;;;;;;;;;;;;;;;;;;5133738;27;19919;-68
2021/10/29 07:41:27;;;;;;;;;;;;;;;;;;5133141;28;19919;-68
2021/10/29 07:43:55;;;;;;;;;;;;;;;;;;5133238;28;19923;-68
2021/10/29 07:46:22;;;;;;;;;;;;;;;;;;5133399;28;20057;-68
2021/10/29 07:48:48;;;;;;;;;;;;;;;;;;5133080;28;19927;-69
2021/10/29 07:51:15;;;;;;;;;;;;;;;;;;5133361;28;19930;-68
2021/10/29 07:53:41;;;;;;;;;;;;;;;;;;5133191;28;19972;-68
2021/10/29 07:56:08;;;;;;;;;;;;;;;;;;5133149;28;19923;-69
2021/10/29 07:58:34;;;;;;;;;;;;;;;;;;5134552;27;19923;-69
2021/10/29 08:01:01;;;;;;;;;;;;;;;;;;5137553;27;19934;-67
2021/10/29 08:03:27;;;;;;;;;;;;;;;;;;5137234;27;19923;-69
2021/10/29 08:05:53;;;;;;;;;;;;;;;;;;5137349;27;19988;-69
2021/10/29 08:08:20;;;;;;;;;;;;;;;;;;5137363;27;19946;-69
2021/10/29 08:10:46;;;;;;;;;;;;;;;;;;5136824;27;19976;-69
2021/10/29 08:13:12;;;;;;;;;;;;;;;;;;5136998;27;19976;-68
2021/10/29 08:15:39;;;;;;;;;;;;;;;;;;5136974;27;19923;-69
2021/10/29 08:18:06;;;;;;;;;;;;;;;;;;5136850;27;19930;-68
2021/10/29 08:20:32;;;;;;;;;;;;;;;;;;5136497;27;20007;-69
2021/10/29 08:22:58;;;;;;;;;;;;;;;;;;5136997;27;19946;-68
2021/10/29 08:25:25;;;;;;;;;;;;;;;;;;5136323;27;19930;-68
2021/10/29 08:27:51;;;;;;;;;;;;;;;;;;5136657;27;19927;-68
2021/10/29 08:30:17;;;;;;;;;;;;;;;;;;5136933;27;19944;-68
2021/10/29 08:32:46;;;;;;;;;;;;;;;;;;5136238;27;19923;-68
2021/10/29 08:35:12;;;;;;;;;;;;;;;;;;5136755;27;19923;-68
2021/10/29 08:37:40;;;;;;;;;;;;;;;;;;5136236;27;19930;-69
2021/10/29 08:40:07;;;;;;;;;;;;;;;;;;5136502;27;19931;-69
2021/10/29 08:42:33;;;;;;;;;;;;;;;;;;5136442;27;19930;-68
2021/10/29 08:44:59;;;;;;;;;;;;;;;;;;5136314;27;20428;-68
2021/10/29 08:47:26;;;;;;;;;;;;;;;;;;5135968;27;19923;-69
2021/10/29 08:49:52;;;;;;;;;;;;;;;;;;5136227;27;20378;-68
2021/10/29 08:52:21;;;;;;;;;;;;;;;;;;5136542;27;19923;-69
2021/10/29 08:54:48;;;;;;;;;;;;;;;;;;5135949;27;19923;-69
2021/10/29 08:57:14;;;;;;;;;;;;;;;;;;5136373;27;19923;-68
2021/10/29 08:59:40;;;;;;;;;;;;;;;;;;5136302;27;19946;-68
2021/10/29 09:02:10;;;;;;;;;;;;;;;;;;5136288;27;19974;-68
2021/10/29 09:04:44;;;;;;;;;;;;;;;;;;5135841;27;20369;-68
2021/10/29 09:07:22;;;;;;;;;;;;;;;;;;5136276;27;19923;-68
2021/10/29 09:32:00;;;;;;;;;;;;;;;;;;5135725;27;19959;-68
2021/10/29 09:34:26;;;;;;;;;;;;;;;;;;5135088;27;19970;-68
2021/10/29 09:36:53;;;;;;;;;;;;;;;;;;5135796;27;19996;-69
2021/10/29 09:39:20;;;;;;;;;;;;;;;;;;5135322;27;20370;-69
2021/10/29 09:41:46;;;;;;;;;;;;;;;;;;5135247;27;19923;-68
2021/10/29 09:44:13;;;;;;;;;;;;;;;;;;5135486;27;19923;-68
2021/10/29 09:46:43;;;;;;;;;;;;;;;;;;5135130;27;19923;-68
2021/10/29 09:49:10;;;;;;;;;;;;;;;;;;5135400;27;19924;-68
2021/10/29 09:51:48;;;;;;;;;;;;;;;;;;5134827;27;20014;-69
2021/10/29 09:54:16;;;;;;;;;;;;;;;;;;5135363;27;19959;-69
2021/10/29 09:56:52;;;;;;;;;;;;;;;;;;5134513;27;19927;-68
2021/10/29 09:59:18;;;;;;;;;;;;;;;;;;5135235;27;19923;-69
2021/10/29 10:01:45;;;;;;;;;;;;;;;;;;5134647;27;20285;-69
2021/10/29 10:04:11;;;;;;;;;;;;;;;;;;5134855;27;19924;-69
2021/10/29 10:06:37;;;;;;;;;;;;;;;;;;5134590;27;19930;-69
2021/10/29 10:09:07;;;;;;;;;;;;;;;;;;5134821;27;20397;-68
2021/10/29 10:11:34;;;;;;;;;;;;;;;;;;5134788;27;19924;-69
2021/10/29 10:14:02;;;;;;;;;;;;;;;;;;5134801;27;19924;-69
2021/10/29 10:16:29;;;;;;;;;;;;;;;;;;5134538;27;19924;-69
2021/10/29 10:18:55;;;;;;;;;;;;;;;;;;5134659;27;19924;-68
2021/10/29 10:21:23;;;;;;;;;;;;;;;;;;5133365;27;20672;-69
2021/10/29 10:23:51;;;;;;;;;;;;;;;;;;5134519;27;19927;-69
2021/10/29 10:26:26;;;;;;;;;;;;;;;;;;5134507;27;19930;-69
2021/10/29 10:29:02;;;;;;;;;;;;;;;;;;5134300;27;19932;-69
2021/10/29 10:42:30;;;;;;;;;;;;;;;;;;5134037;27;20277;-69
2021/10/29 10:45:04;;;;;;;;;;;;;;;;;;5133991;27;20426;-68
2021/10/29 10:47:31;;;;;;;;;;;;;;;;;;5134094;27;19931;-68
2021/10/29 10:49:57;;;;;;;;;;;;;;;;;;5133931;27;19930;-68
2021/10/29 10:52:27;;;;;;;;;;;;;;;;;;5133948;27;20019;-68
2021/10/29 10:54:56;;;;;;;;;;;;;;;;;;5133845;27;20335;-68
2021/10/29 10:57:29;;;;;;;;;;;;;;;;;;5133978;27;20365;-69
2021/10/29 11:00:03;;;;;;;;;;;;;;;;;;5134057;27;19923;-68
2021/10/29 11:05:28;;;;;;;;;;;;;;;;;;5134071;27;19920;-69
2021/10/29 11:10:34;;;;;;;;;;;;;;;;;;5132215;27;19927;-67
2021/10/29 11:13:01;;;;;;;;;;;;;;;;;;5133938;27;19947;-69
2021/10/29 11:15:27;;;;;;;;;;;;;;;;;;5133775;27;20017;-68
2021/10/29 11:17:54;;;;;;;;;;;;;;;;;;5133401;27;19923;-68
2021/10/29 11:20:21;;;;;;;;;;;;;;;;;;5133579;27;19930;-66
2021/10/29 11:22:47;;;;;;;;;;;;;;;;;;5133476;27;19972;-67
2021/10/29 11:25:13;;;;;;;;;;;;;;;;;;5133842;27;19927;-67
2021/10/29 11:27:41;;;;;;;;;;;;;;;;;;5133310;27;19949;-67
2021/10/29 11:30:08;;;;;;;;;;;;;;;;;;5133478;28;19923;-67
2021/10/29 11:32:34;;;;;;;;;;;;;;;;;;5133040;27;19923;-67
2021/10/29 11:35:02;;;;;;;;;;;;;;;;;;5133355;28;20369;-67
2021/10/29 11:37:30;;;;;;;;;;;;;;;;;;5133034;28;19927;-67
2021/10/29 11:39:56;;;;;;;;;;;;;;;;;;5133210;28;19930;-67
2021/10/29 11:42:23;;;;;;;;;;;;;;;;;;5133174;28;19923;-67
2021/10/29 11:44:49;;;;;;;;;;;;;;;;;;5133201;28;19933;-67
2021/10/29 11:47:15;;;;;;;;;;;;;;;;;;5133501;28;19930;-67
2021/10/29 11:49:42;;;;;;;;;;;;;;;;;;5133291;28;20025;-67
2021/10/29 11:52:09;;;;;;;;;;;;;;;;;;5133219;28;19930;-67
2021/10/29 11:54:38;;;;;;;;;;;;;;;;;;5132694;28;20297;-67
2021/10/29 11:57:19;;;;;;;;;;;;;;;;;;5133477;28;20297;-67
2021/10/29 12:07:57;;;;;;;;;;;;;;;;;;5133126;28;19926;-67
2021/10/29 12:10:23;;;;;;;;;;;;;;;;;;5132686;28;19924;-67
2021/10/29 12:12:50;;;;;;;;;;;;;;;;;;5133266;28;19934;-67
2021/10/29 12:15:17;;;;;;;;;;;;;;;;;;5132893;28;19923;-68
2021/10/29 12:17:50;;;;;;;;;;;;;;;;;;5132979;28;20286;-67
2021/10/29 12:20:19;;;;;;;;;;;;;;;;;;5132966;28;20010;-67
2021/10/29 12:22:47;;;;;;;;;;;;;;;;;;5132990;28;19923;-67
2021/10/29 12:25:18;;;;;;;;;;;;;;;;;;5132955;28;19923;-68
2021/10/29 12:27:47;;;;;;;;;;;;;;;;;;5132789;28;20326;-67
2021/10/29 12:30:17;;;;;;;;;;;;;;;;;;5133005;28;19923;-66
2021/10/29 12:33:05;;;;;;;;;;;;;;;;;;5132977;28;19928;-66
2021/10/29 12:52:26;;;;;;;;;;;;;;;;;;5136590;27;19956;-67
2021/10/29 13:03:07;;;;;;;;;;;;;;;;;;5136431;27;20059;-67
2021/10/29 13:05:33;;;;;;;;;;;;;;;;;;5136062;27;19927;-68
2021/10/29 13:08:00;;;;;;;;;;;;;;;;;;5135992;27;19924;-68
2021/10/29 13:10:26;;;;;;;;;;;;;;;;;;5136052;27;20019;-67
2021/10/29 13:12:59;;;;;;;;;;;;;;;;;;5136007;27;20431;-67
2021/10/29 13:15:25;;;;;;;;;;;;;;;;;;5135492;27;19923;-67
2021/10/29 13:17:58;;;;;;;;;;;;;;;;;;5136057;27;19923;-68
2021/10/29 13:28:43;;;;;;;;;;;;;;;;;;5135288;27;19919;-68
2021/10/29 13:36:47;;;;;;;;;;;;;;;;;;5135295;27;19963;-68
2021/10/29 13:50:46;;;;;;;;;;;;;;;;;;5135371;27;20002;-67
2021/10/29 13:53:22;;;;;;;;;;;;;;;;;;5135066;27;20327;-69
2021/10/29 13:56:05;;;;;;;;;;;;;;;;;;5134716;27;19967;-67
2021/10/29 14:01:40;;;;;;;;;;;;;;;;;;5134996;27;19923;-68
2021/10/29 14:29:11;;;;;;;;;;;;;;;;;;5134554;27;19995;-67
2021/10/29 14:31:43;;;;;;;;;;;;;;;;;;5134614;27;19930;-67
2021/10/29 14:34:13;;;;;;;;;;;;;;;;;;5134428;27;20464;-67
2021/10/29 14:36:56;;;;;;;;;;;;;;;;;;5134101;27;20369;-67
2021/10/29 14:39:29;;;;;;;;;;;;;;;;;;5134256;27;20385;-68
2021/10/29 14:42:01;;;;;;;;;;;;;;;;;;5134482;27;20021;-68
2021/10/29 14:44:34;;;;;;;;;;;;;;;;;;5133999;27;20354;-67
2021/10/29 14:47:15;;;;;;;;;;;;;;;;;;5133973;27;19963;-68
2021/10/29 14:49:51;;;;;;;;;;;;;;;;;;5133632;27;19930;-68
2021/10/29 15:28:25;;;;;;;;;;;;;;;;;;5127872;27;19924;-67
2021/10/29 15:31:00;;;;;;;;;;;;;;;;;;5133427;27;19923;-69
2021/10/29 15:40:55;;;;;;;;;;;;;;;;;;5133464;28;19924;-69
2021/10/29 15:42:18;;;;;;;;;;;;;;;;;;5133480;28;19950;-68
2021/10/29 15:44:46;;;;;;;;;;;;;;;;;;5133303;28;19923;-66
2021/10/29 15:47:29;;;;;;;;;;;;;;;;;;5133095;28;20386;-67
2021/10/29 15:49:56;;;;;;;;;;;;;;;;;;5133260;28;19924;-67
2021/10/29 15:52:22;;;;;;;;;;;;;;;;;;5133197;28;20433;-68
2021/10/29 15:54:51;;;;;;;;;;;;;;;;;;5133165;28;19924;-66
2021/10/29 15:57:23;;;;;;;;;;;;;;;;;;5133135;28;19930;-68
2021/10/29 15:59:57;;;;;;;;;;;;;;;;;;5133216;28;19959;-68
2021/10/29 16:02:34;;;;;;;;;;;;;;;;;;5133072;28;20378;-69
2021/10/29 16:18:40;;;;;;;;;;;;;;;;;;5132958;27;19964;-67
2021/10/29 16:21:06;;;;;;;;;;;;;;;;;;5135805;27;19924;-67
2021/10/29 16:23:33;;;;;;;;;;;;;;;;;;5136877;27;19924;-67
2021/10/29 16:26:02;;;;;;;;;;;;;;;;;;5136695;27;20288;-67
2021/10/29 16:28:31;;;;;;;;;;;;;;;;;;5136353;27;20022;-67
2021/10/29 16:30:57;;;;;;;;;;;;;;;;;;5136857;27;19927;-67
2021/10/29 16:33:28;;;;;;;;;;;;;;;;;;5136755;27;19927;-67
2021/10/29 16:35:55;;;;;;;;;;;;;;;;;;5136634;27;19924;-67
2021/10/29 16:38:21;;;;;;;;;;;;;;;;;;5136920;27;19923;-67
2021/10/29 16:40:47;;;;;;;;;;;;;;;;;;5136238;27;20374;-67
2021/10/29 16:43:14;;;;;;;;;;;;;;;;;;5136493;27;19927;-67
2021/10/29 16:45:42;;;;;;;;;;;;;;;;;;5136448;27;19946;-67
2021/10/29 16:48:09;;;;;;;;;;;;;;;;;;5136338;27;19930;-67
2021/10/29 16:50:35;;;;;;;;;;;;;;;;;;5136397;27;19923;-67
2021/10/29 16:53:01;;;;;;;;;;;;;;;;;;5136319;27;20381;-67
2021/10/29 16:55:28;;;;;;;;;;;;;;;;;;5135979;27;19923;-67
2021/10/29 16:57:54;;;;;;;;;;;;;;;;;;5136152;27;20297;-67
2021/10/29 17:00:20;;;;;;;;;;;;;;;;;;5136009;27;19923;-67
2021/10/29 17:02:47;;;;;;;;;;;;;;;;;;5135830;27;20327;-67
2021/10/29 17:05:13;;;;;;;;;;;;;;;;;;5136098;27;20381;-67
2021/10/29 17:07:39;;;;;;;;;;;;;;;;;;5135600;27;20029;-67
2021/10/29 17:10:10;;;;;;;;;;;;;;;;;;5136363;27;19924;-67
2021/10/29 17:12:37;;;;;;;;;;;;;;;;;;5135869;27;19924;-67
2021/10/29 17:15:03;;;;;;;;;;;;;;;;;;5136022;27;19976;-67
2021/10/29 17:17:29;;;;;;;;;;;;;;;;;;5135850;27;19924;-67
2021/10/29 17:19:56;;;;;;;;;;;;;;;;;;5135783;27;19974;-67
2021/10/29 17:22:22;;;;;;;;;;;;;;;;;;5135735;27;19930;-67
2021/10/29 17:24:48;;;;;;;;;;;;;;;;;;5135454;27;20370;-67
2021/10/29 17:27:15;;;;;;;;;;;;;;;;;;5135618;27;19946;-67
2021/10/29 17:29:41;;;;;;;;;;;;;;;;;;5135668;27;19959;-67
2021/10/29 17:32:11;;;;;;;;;;;;;;;;;;5135371;27;19994;-67
2021/10/29 17:34:37;;;;;;;;;;;;;;;;;;5135399;27;19923;-66
2021/10/29 17:37:04;;;;;;;;;;;;;;;;;;5135767;27;19923;-66
2021/10/29 17:39:30;;;;;;;;;;;;;;;;;;5135176;27;19930;-68
2021/10/29 17:41:56;;;;;;;;;;;;;;;;;;5135394;27;20385;-67
2021/10/29 17:44:23;;;;;;;;;;;;;;;;;;5135243;27;20026;-67
2021/10/29 17:46:49;;;;;;;;;;;;;;;;;;5135229;27;20025;-67
2021/10/29 17:49:17;;;;;;;;;;;;;;;;;;5135465;27;19923;-67
2021/10/29 17:51:44;;;;;;;;;;;;;;;;;;5134788;27;19934;-67
2021/10/29 17:54:10;;;;;;;;;;;;;;;;;;5135120;27;19953;-67
2021/10/29 17:56:37;;;;;;;;;;;;;;;;;;5135095;27;19923;-68
2021/10/29 17:59:05;;;;;;;;;;;;;;;;;;5135060;27;19923;-67
2021/10/29 18:01:31;;;;;;;;;;;;;;;;;;5134344;27;19973;-67
2021/10/29 18:03:57;;;;;;;;;;;;;;;;;;5134775;27;19970;-67
2021/10/29 18:06:24;;;;;;;;;;;;;;;;;;5134631;27;20523;-67
2021/10/29 18:08:55;;;;;;;;;;;;;;;;;;5135040;27;19927;-67
2021/10/29 18:11:21;;;;;;;;;;;;;;;;;;5135110;27;19923;-67
2021/10/29 18:13:47;;;;;;;;;;;;;;;;;;5134401;27;19975;-67
2021/10/29 18:16:14;;;;;;;;;;;;;;;;;;5134928;27;19923;-67
2021/10/29 18:18:40;;;;;;;;;;;;;;;;;;5134336;27;20377;-67
2021/10/29 18:21:09;;;;;;;;;;;;;;;;;;5134632;27;19923;-67
2021/10/29 18:23:35;;;;;;;;;;;;;;;;;;5134198;27;19981;-67
2021/10/29 18:26:02;;;;;;;;;;;;;;;;;;5134697;27;20022;-67
2021/10/29 18:28:28;;;;;;;;;;;;;;;;;;5134417;27;19924;-67
2021/10/29 18:30:54;;;;;;;;;;;;;;;;;;5134619;27;19929;-67
2021/10/29 18:33:20;;;;;;;;;;;;;;;;;;5134371;27;19924;-67
2021/10/29 18:35:47;;;;;;;;;;;;;;;;;;5134255;27;19930;-67
2021/10/29 18:38:13;;;;;;;;;;;;;;;;;;5134196;27;20293;-67
2021/10/29 18:40:41;;;;;;;;;;;;;;;;;;5134326;27;19927;-67
2021/10/29 18:43:07;;;;;;;;;;;;;;;;;;5133462;27;19950;-67
2021/10/29 18:45:35;;;;;;;;;;;;;;;;;;5134162;27;19923;-67
2021/10/29 18:48:01;;;;;;;;;;;;;;;;;;5133895;27;19923;-67
2021/10/29 18:50:27;;;;;;;;;;;;;;;;;;5134008;27;19930;-67
2021/10/29 18:52:53;;;;;;;;;;;;;;;;;;5134048;27;20427;-67
2021/10/29 18:55:20;;;;;;;;;;;;;;;;;;5134186;27;19929;-67
2021/10/29 18:57:46;;;;;;;;;;;;;;;;;;5134036;27;19928;-67
2021/10/29 19:00:14;;;;;;;;;;;;;;;;;;5134258;27;19924;-68
2021/10/29 19:02:40;;;;;;;;;;;;;;;;;;5133952;27;19953;-68
2021/10/29 19:05:07;;;;;;;;;;;;;;;;;;5133695;27;20386;-68
2021/10/29 19:07:33;;;;;;;;;;;;;;;;;;5133438;27;19923;-67
2021/10/29 19:09:59;;;;;;;;;;;;;;;;;;5133890;27;19923;-67
2021/10/29 19:12:26;;;;;;;;;;;;;;;;;;5133438;27;19939;-67
2021/10/29 19:14:52;;;;;;;;;;;;;;;;;;5133600;27;19923;-68
2021/10/29 19:17:19;;;;;;;;;;;;;;;;;;5131952;27;19923;-67
2021/10/29 19:19:45;;;;;;;;;;;;;;;;;;5133540;27;19928;-67
2021/10/29 19:22:12;;;;;;;;;;;;;;;;;;5133340;27;19960;-67
2021/10/29 19:24:38;;;;;;;;;;;;;;;;;;5133104;27;19923;-67
2021/10/29 19:27:05;;;;;;;;;;;;;;;;;;5133447;27;19928;-68
2021/10/29 19:29:31;;;;;;;;;;;;;;;;;;5133164;27;19971;-68
2021/10/29 19:32:03;;;;;;;;;;;;;;;;;;5133718;27;19931;-67
2021/10/29 19:34:30;;;;;;;;;;;;;;;;;;5112679;28;19971;-67
2021/10/29 19:37:10;;;;;;;;;;;;;;;;;;5113151;28;19969;-67
2021/10/29 19:39:50;;;;;;;;;;;;;;;;;;5112928;28;19924;-68
2021/10/29 19:42:16;;;;;;;;;;;;;;;;;;5112757;28;20376;-68
2021/10/29 19:44:43;;;;;;;;;;;;;;;;;;5112553;28;19931;-67
2021/10/29 19:47:09;;;;;;;;;;;;;;;;;;5113104;28;19924;-67
2021/10/29 19:49:35;;;;;;;;;;;;;;;;;;5116820;28;20381;-68
2021/10/29 19:52:01;;;;;;;;;;;;;;;;;;5133425;28;19924;-68
2021/10/29 19:54:30;;;;;;;;;;;;;;;;;;5134978;27;20017;-68
2021/10/29 19:57:07;;;;;;;;;;;;;;;;;;5137723;27;20004;-67
2021/10/29 19:59:33;;;;;;;;;;;;;;;;;;5137115;27;19923;-68
2021/10/29 20:02:00;;;;;;;;;;;;;;;;;;5137591;27;19929;-68
2021/10/29 20:04:26;;;;;;;;;;;;;;;;;;5136895;27;19931;-67
2021/10/29 20:06:52;;;;;;;;;;;;;;;;;;5137557;27;19946;-68
2021/10/29 20:09:19;;;;;;;;;;;;;;;;;;5137104;27;19930;-68
2021/10/29 20:11:45;;;;;;;;;;;;;;;;;;5137234;27;19923;-68
2021/10/29 20:14:12;;;;;;;;;;;;;;;;;;5137048;27;19930;-68
2021/10/29 20:16:38;;;;;;;;;;;;;;;;;;5136634;27;20038;-68
2021/10/29 20:19:04;;;;;;;;;;;;;;;;;;5137271;27;19923;-68
2021/10/29 20:21:31;;;;;;;;;;;;;;;;;;5136517;27;20392;-68
2021/10/29 20:23:58;;;;;;;;;;;;;;;;;;5136799;27;19927;-68
2021/10/29 20:26:25;;;;;;;;;;;;;;;;;;5136689;27;19955;-68
2021/10/29 20:28:51;;;;;;;;;;;;;;;;;;5136987;27;19924;-68
2021/10/29 20:31:17;;;;;;;;;;;;;;;;;;5137264;27;19946;-68
2021/10/29 20:33:44;;;;;;;;;;;;;;;;;;5136704;27;19928;-68
2021/10/29 20:36:10;;;;;;;;;;;;;;;;;;5136977;27;19924;-68